Time;durP1;ratioP1;P1;durP2;ratioP2;P2;SDS_P1;SDS_P2;PMS_P1;PMS_P2;Temp;Humidity;BMP_temperature;BMP_pressure;BME280_temperature;BME280_humidity;BME280_pressure;Samples;Min_cycle;Max_cycle;Signal;HPM_P1;HPM_P2
2022/05/04 00:02:19;;;;;;;13.50;6.93;;;;;;;8.10;74.34;101899.25;5013892;28;20021;-85
2022/05/04 00:04:44;;;;;;;16.70;6.40;;;;;;;8.03;74.77;101895.22;5028388;28;20018;-85
2022/05/04 00:07:09;;;;;;;13.43;6.43;;;;;;;8.02;74.62;101904.00;5013453;28;20021;-85
2022/05/04 00:09:36;;;;;;;16.60;6.60;;;;;;;7.98;74.69;101897.16;5030837;28;20033;-85
2022/05/04 00:12:01;;;;;;;13.30;6.88;;;;;;;7.99;74.50;101892.78;5031598;28;20033;-85
2022/05/04 00:14:29;;;;;;;13.35;6.45;;;;;;;7.99;74.55;101896.25;5010820;28;20049;-85
2022/05/04 00:16:55;;;;;;;9.52;6.32;;;;;;;7.96;75.07;101896.38;5012116;28;20034;-85
2022/05/04 00:19:21;;;;;;;15.23;6.97;;;;;;;7.96;75.47;101892.91;5011236;28;20021;-84
2022/05/04 00:21:46;;;;;;;13.32;7.20;;;;;;;7.88;75.66;101903.75;5007631;28;20026;-84
2022/05/04 00:24:11;;;;;;;18.63;7.22;;;;;;;7.86;75.80;101900.34;4994173;28;20383;-85
2022/05/04 00:26:37;;;;;;;16.88;7.68;;;;;;;7.83;76.37;101897.88;5011447;28;20065;-85
2022/05/04 00:29:02;;;;;;;12.90;7.72;;;;;;;7.82;76.11;101894.41;5012031;28;20101;-85
2022/05/04 00:31:28;;;;;;;14.15;7.55;;;;;;;7.81;76.54;101892.72;5011549;28;20033;-85
2022/05/04 00:33:53;;;;;;;14.07;7.50;;;;;;;7.85;76.86;101893.41;5010130;28;20398;-85
2022/05/04 00:36:19;;;;;;;15.88;8.00;;;;;;;7.86;77.10;101897.72;5010241;28;20033;-86
2022/05/04 00:38:44;;;;;;;16.77;8.52;;;;;;;7.89;76.89;101899.38;5001839;28;20034;-86
2022/05/04 00:41:09;;;;;;;15.95;7.95;;;;;;;7.95;76.92;101904.31;4990276;28;20470;-85
2022/05/04 00:43:35;;;;;;;17.80;8.55;;;;;;;7.97;77.08;101892.84;5003537;28;20112;-85
2022/05/04 00:46:00;;;;;;;15.88;8.35;;;;;;;8.03;76.93;101894.34;5010225;28;20026;-85
2022/05/04 00:48:26;;;;;;;14.32;8.05;;;;;;;8.05;76.77;101895.97;5010832;28;20033;-85
2022/05/04 00:50:53;;;;;;;16.02;8.20;;;;;;;8.06;77.20;101886.34;5009859;28;20378;-85
2022/05/04 00:53:20;;;;;;;14.63;8.18;;;;;;;8.10;76.56;101896.63;5010418;28;20383;-84
2022/05/04 00:55:46;;;;;;;14.57;7.82;;;;;;;8.07;76.58;101888.91;5009279;28;20048;-84
2022/05/04 01:01:00;;;;;;;17.05;8.23;;;;;;;8.08;77.13;101884.50;5009932;28;20099;-84
2022/05/04 01:03:36;;;;;;;14.15;8.18;;;;;;;8.07;76.38;101888.03;5010723;28;20026;-84
2022/05/04 01:06:05;;;;;;;15.57;8.55;;;;;;;8.09;76.41;101879.19;5009972;28;20111;-84
2022/05/04 01:08:31;;;;;;;14.75;8.43;;;;;;;8.12;76.72;101892.16;5003395;28;20030;-84
2022/05/04 01:10:56;;;;;;;20.80;8.32;;;;;;;8.15;76.17;101886.75;5011297;28;20049;-84
2022/05/04 01:13:22;;;;;;;17.17;9.02;;;;;;;8.15;76.28;101884.13;5011107;28;20036;-84
2022/05/04 01:15:49;;;;;;;17.85;7.82;;;;;;;8.15;75.83;101892.00;5030787;28;20026;-84
2022/05/04 01:18:14;;;;;;;16.25;7.88;;;;;;;8.24;76.21;101889.88;5012882;28;20036;-85
2022/05/04 01:20:41;;;;;;;16.98;7.85;;;;;;;8.24;75.75;101890.72;5030013;28;20474;-85
2022/05/04 01:23:09;;;;;;;14.88;7.45;;;;;;;8.24;75.55;101895.09;4998102;28;20025;-84
2022/05/04 01:25:35;;;;;;;15.30;7.63;;;;;;;8.22;75.17;101886.47;5016448;28;20087;-84
2022/05/04 01:28:01;;;;;;;12.40;7.13;;;;;;;8.30;75.13;101894.81;5030369;28;20037;-84
2022/05/04 01:30:27;;;;;;;14.68;7.20;;;;;;;8.32;75.08;101888.56;5030648;28;20053;-84
2022/05/04 01:32:53;;;;;;;14.25;6.95;;;;;;;8.32;75.16;101887.72;5002497;28;20539;-85
2022/05/04 01:35:19;;;;;;;15.02;7.53;;;;;;;8.37;74.72;101888.38;5009973;28;20034;-85
2022/05/04 01:37:44;;;;;;;14.80;7.25;;;;;;;8.37;74.73;101886.59;5004334;28;20026;-85
2022/05/04 01:40:10;;;;;;;18.13;7.00;;;;;;;8.40;74.41;101890.84;5011810;28;20053;-85
2022/05/04 01:42:36;;;;;;;16.25;7.03;;;;;;;8.39;74.61;101890.00;5015234;28;20504;-85
2022/05/04 01:45:03;;;;;;;19.05;7.20;;;;;;;8.41;74.42;101887.34;5029748;28;20772;-85
2022/05/04 01:47:29;;;;;;;14.85;6.97;;;;;;;8.40;74.01;101886.44;5012108;28;20026;-84
2022/05/04 01:49:54;;;;;;;18.42;7.35;;;;;;;8.41;73.98;101882.09;5011465;28;20143;-84
2022/05/04 01:52:19;;;;;;;14.02;7.43;;;;;;;8.41;73.98;101887.34;5029853;28;20026;-85
2022/05/04 01:54:45;;;;;;;14.38;7.05;;;;;;;8.43;74.03;101880.25;5024567;28;20030;-85
2022/05/04 01:57:10;;;;;;;15.40;7.13;;;;;;;8.39;74.10;101883.91;5006605;28;20079;-85
2022/05/04 01:59:35;;;;;;;18.00;7.22;;;;;;;8.41;74.04;101882.09;5029706;28;20477;-85
2022/05/04 02:02:04;;;;;;;14.60;6.97;;;;;;;8.42;73.32;101884.63;5026485;28;20040;-85
2022/05/04 02:04:30;;;;;;;17.67;6.50;;;;;;;8.42;73.25;101879.41;5009302;28;20381;-85
2022/05/04 02:06:55;;;;;;;19.27;7.60;;;;;;;8.39;73.76;101876.88;5012347;28;20029;-84
2022/05/04 02:09:23;;;;;;;14.98;6.93;;;;;;;8.43;73.75;101880.25;5021018;28;20049;-85
2022/05/04 02:11:49;;;;;;;13.25;6.68;;;;;;;8.43;73.32;101875.00;5011112;28;20386;-85
2022/05/04 02:14:14;;;;;;;14.85;6.30;;;;;;;8.41;72.85;101872.44;5004931;28;20046;-85
2022/05/04 02:16:42;;;;;;;13.20;6.57;;;;;;;8.41;73.23;101880.31;4998455;28;20034;-85
2022/05/04 02:19:16;;;;;;;16.23;6.90;;;;;;;8.43;73.32;101880.25;5008475;28;20666;-85
2022/05/04 02:21:41;;;;;;;15.38;7.20;;;;;;;8.40;73.44;101877.75;5007216;28;20029;-85
2022/05/04 02:24:07;;;;;;;14.68;6.93;;;;;;;8.45;73.21;101881.00;4994355;28;20025;-85
2022/05/04 02:26:33;;;;;;;15.93;7.63;;;;;;;8.44;73.28;101874.06;5010669;28;20049;-85
2022/05/04 02:28:58;;;;;;;17.35;6.65;;;;;;;8.43;73.18;101869.75;5010048;28;20450;-85
2022/05/04 02:31:23;;;;;;;20.85;6.75;;;;;;;8.41;72.97;101872.44;5009593;28;20030;-85
2022/05/04 02:33:49;;;;;;;16.90;7.13;;;;;;;8.44;73.11;101871.44;4992165;28;20129;-84
2022/05/04 02:38:59;;;;;;;15.73;6.60;;;;;;;8.41;73.15;101874.22;4989504;28;20029;-85
2022/05/04 02:41:24;;;;;;;20.05;7.03;;;;;;;8.36;72.86;101868.31;5006798;28;20406;-85
2022/05/04 02:43:49;;;;;;;16.02;7.15;;;;;;;8.35;72.95;101870.09;5009674;28;20061;-85
2022/05/04 02:46:20;;;;;;;15.75;7.13;;;;;;;8.33;72.90;101878.94;5009298;28;20021;-84
2022/05/04 02:48:46;;;;;;;16.25;6.95;;;;;;;8.25;72.87;101860.94;5010084;28;20030;-84
2022/05/04 02:51:12;;;;;;;16.77;7.05;;;;;;;8.26;72.98;101867.88;5009482;28;20553;-85
2022/05/04 02:53:37;;;;;;;17.98;6.70;;;;;;;8.20;73.19;101865.56;5009205;28;20113;-84
2022/05/04 02:56:08;;;;;;;13.90;6.30;;;;;;;8.22;73.30;101865.50;5009419;28;20053;-84
2022/05/04 02:58:34;;;;;;;17.95;6.40;;;;;;;8.20;73.04;101862.09;5007321;28;20486;-84
2022/05/04 03:03:53;;;;;;;;;;;;;;;8.28;72.33;101865.19;5009886;28;20116;-85
2022/05/04 03:06:18;;;;;;;17.67;7.07;;;;;;;8.15;72.96;101857.94;5007225;28;20369;-86
2022/05/04 03:08:43;;;;;;;15.93;6.88;;;;;;;8.12;73.17;101857.22;5007683;28;20014;-85
2022/05/04 03:13:56;;;;;;;14.88;7.05;;;;;;;8.09;73.62;101850.34;4995137;28;20108;-85
2022/05/04 03:16:30;;;;;;;17.33;6.88;;;;;;;8.07;73.50;101857.44;5022688;28;20108;-84
2022/05/04 03:18:55;;;;;;;19.58;7.95;;;;;;;8.03;73.67;101853.28;5028611;28;20029;-84
2022/05/04 03:21:20;;;;;;;15.88;7.22;;;;;;;8.02;73.71;101848.09;5030013;28;20033;-85
2022/05/04 03:23:47;;;;;;;14.88;6.90;;;;;;;7.98;73.65;101851.75;5006912;28;20021;-84
2022/05/04 03:26:12;;;;;;;16.17;7.30;;;;;;;7.95;73.69;101842.28;5013836;28;20037;-84
2022/05/04 03:28:37;;;;;;;16.23;7.05;;;;;;;7.93;73.25;101845.91;5014721;28;20076;-85
2022/05/04 03:31:05;;;;;;;14.73;7.22;;;;;;;7.88;73.88;101846.09;5032025;28;20031;-84
2022/05/04 03:33:30;;;;;;;12.98;6.95;;;;;;;7.85;74.21;101846.25;4999541;28;20026;-84
2022/05/04 03:35:56;;;;;;;18.65;6.63;;;;;;;7.77;73.98;101838.75;5012184;28;20508;-84
2022/05/04 03:38:21;;;;;;;15.70;6.78;;;;;;;7.78;73.98;101845.69;5014034;28;20026;-84
2022/05/04 03:40:46;;;;;;;19.60;6.95;;;;;;;7.75;73.75;101850.22;5022644;28;20072;-85
2022/05/04 03:43:11;;;;;;;16.15;7.10;;;;;;;7.77;74.26;101851.84;5012334;28;20478;-84
2022/05/04 03:45:37;;;;;;;17.85;6.93;;;;;;;7.76;74.28;101847.53;5024211;28;20287;-84
2022/05/04 03:48:02;;;;;;;14.45;6.50;;;;;;;7.76;74.02;101846.69;5032701;28;20033;-85
2022/05/04 03:50:28;;;;;;;15.35;7.30;;;;;;;7.74;74.43;101844.13;5014683;28;20613;-85
2022/05/04 03:52:53;;;;;;;13.50;6.82;;;;;;;7.76;73.77;101841.44;5002635;28;20482;-85
2022/05/04 03:55:18;;;;;;;13.95;7.25;;;;;;;7.76;74.49;101844.06;5012075;28;20037;-84
2022/05/04 03:57:43;;;;;;;14.38;7.00;;;;;;;7.71;74.23;101839.03;5012700;28;20546;-84
2022/05/04 04:00:09;;;;;;;14.55;7.13;;;;;;;7.66;74.52;101838.41;5010176;28;20112;-85
2022/05/04 04:02:35;;;;;;;16.73;7.55;;;;;;;7.61;74.60;101847.41;5014682;28;20056;-84
2022/05/04 04:05:00;;;;;;;14.95;6.85;;;;;;;7.57;74.77;101843.19;5003539;28;20110;-84
2022/05/04 04:07:26;;;;;;;24.23;9.50;;;;;;;7.52;74.96;101844.25;5013084;28;20477;-84
2022/05/04 04:09:51;;;;;;;17.88;7.65;;;;;;;7.54;75.03;101844.19;5030740;28;20379;-84
2022/05/04 04:12:19;;;;;;;21.25;7.63;;;;;;;7.52;74.62;101848.63;5030779;28;20036;-84
2022/05/04 04:14:45;;;;;;;17.80;7.22;;;;;;;7.50;75.05;101840.84;5031712;28;20453;-83
2022/05/04 04:17:10;;;;;;;15.65;7.30;;;;;;;7.45;75.33;101834.97;5022305;28;20061;-84
2022/05/04 04:19:35;;;;;;;15.73;7.32;;;;;;;7.39;75.45;101848.34;4994687;28;20029;-83
2022/05/04 04:22:01;;;;;;;14.65;7.28;;;;;;;7.38;75.48;101844.03;5017217;28;20017;-84
2022/05/04 04:24:27;;;;;;;13.27;7.93;;;;;;;7.31;75.59;101844.38;5030803;28;20025;-84
2022/05/04 04:26:52;;;;;;;18.60;7.70;;;;;;;7.26;76.09;101841.97;5031570;28;20041;-84
2022/05/04 04:29:17;;;;;;;16.25;7.60;;;;;;;7.25;76.32;101840.28;5012831;28;20068;-84
2022/05/04 04:31:44;;;;;;;16.27;7.70;;;;;;;7.25;76.59;101840.28;5024811;28;20561;-84
2022/05/04 04:34:09;;;;;;;13.23;7.68;;;;;;;7.25;76.49;101845.50;5029795;28;20041;-84
2022/05/04 04:36:34;;;;;;;14.43;7.88;;;;;;;7.25;76.19;101848.13;5031442;28;20525;-85
2022/05/04 04:39:00;;;;;;;18.55;7.38;;;;;;;7.23;76.46;101853.44;5030729;28;20045;-84
2022/05/04 04:41:26;;;;;;;15.98;7.90;;;;;;;7.23;76.37;101855.19;4998275;28;20061;-84
2022/05/04 04:43:51;;;;;;;16.52;7.80;;;;;;;7.24;76.71;101859.50;5031130;28;20021;-84
2022/05/04 04:46:20;;;;;;;21.67;8.27;;;;;;;7.22;76.50;101861.34;5019260;28;20018;-84
2022/05/04 04:48:48;;;;;;;14.90;7.68;;;;;;;7.26;76.34;101857.69;5011634;28;20029;-84
2022/05/04 04:51:14;;;;;;;18.55;7.78;;;;;;;7.25;76.49;101855.13;5030678;28;20033;-84
2022/05/04 04:53:42;;;;;;;20.55;8.25;;;;;;;7.23;76.88;101849.97;5030057;28;20030;-84
2022/05/04 04:56:08;;;;;;;16.50;7.40;;;;;;;7.22;76.56;101851.72;5012927;28;20021;-84
2022/05/04 04:58:34;;;;;;;17.40;8.30;;;;;;;7.16;77.06;101841.50;5029980;28;20040;-85
2022/05/04 05:00:59;;;;;;;18.42;8.27;;;;;;;7.18;76.72;101844.06;5030219;28;20665;-84
2022/05/04 05:03:25;;;;;;;17.65;8.43;;;;;;;7.17;76.55;101852.81;5030747;28;20466;-85
2022/05/04 05:05:50;;;;;;;16.13;7.38;;;;;;;7.20;76.60;101852.69;5012398;28;20358;-84
2022/05/04 05:08:15;;;;;;;18.02;8.82;;;;;;;7.17;77.43;101858.91;5030638;28;20075;-84
2022/05/04 05:10:41;;;;;;;16.92;8.18;;;;;;;7.19;77.11;101853.59;5030710;28;20025;-84
2022/05/04 05:13:06;;;;;;;17.40;8.40;;;;;;;7.22;77.08;101861.34;5029522;28;20481;-84
2022/05/04 05:18:24;;;;;;;18.55;8.45;;;;;;;7.29;77.06;101860.16;5026206;28;20084;-84
2022/05/04 05:20:50;;;;;;;18.25;8.18;;;;;;;7.28;77.07;101863.69;5002991;28;20394;-84
2022/05/04 05:23:15;;;;;;;18.38;8.48;;;;;;;7.32;77.10;101861.78;5010466;28;20105;-84
2022/05/04 05:25:40;;;;;;;14.77;8.20;;;;;;;7.39;76.50;101866.69;5008786;28;20040;-84
2022/05/04 05:28:06;;;;;;;17.52;8.98;;;;;;;7.41;76.39;101867.47;5011936;28;20025;-84
2022/05/04 05:30:32;;;;;;;17.77;8.05;;;;;;;7.48;75.93;101868.88;5013074;28;20029;-84
2022/05/04 05:32:57;;;;;;;19.80;8.55;;;;;;;7.51;75.83;101866.13;5019396;28;20028;-83
2022/05/04 05:35:22;;;;;;;16.17;8.50;;;;;;;7.57;75.83;101866.75;5021279;28;20470;-83
2022/05/04 05:37:48;;;;;;;18.85;8.90;;;;;;;7.64;75.31;101862.97;4993253;28;20030;-84
2022/05/04 05:40:13;;;;;;;16.38;8.23;;;;;;;7.68;75.69;101859.28;5010245;28;20025;-84
2022/05/04 05:42:42;;;;;;;20.85;7.90;;;;;;;7.75;75.76;101858.09;4992893;28;20033;-84
2022/05/04 05:45:08;;;;;;;17.23;8.15;;;;;;;7.82;75.18;101862.13;5008611;28;20026;-84
2022/05/04 05:47:33;;;;;;;17.23;7.90;;;;;;;7.87;75.37;101865.38;5021246;28;20032;-84
2022/05/04 05:49:59;;;;;;;17.52;8.13;;;;;;;7.91;74.12;101864.31;5029114;28;20558;-85
2022/05/04 05:52:25;;;;;;;18.48;7.50;;;;;;;7.97;74.61;101861.41;5030099;28;20055;-84
2022/05/04 05:54:51;;;;;;;13.98;7.25;;;;;;;8.06;74.79;101862.75;5014085;28;20025;-78
2022/05/04 05:57:16;;;;;;;16.48;7.85;;;;;;;8.12;73.98;101868.56;5029974;28;20374;-80
2022/05/04 05:59:41;;;;;;;14.63;7.90;;;;;;;8.16;73.15;101866.63;5029825;28;20025;-80
2022/05/04 06:02:07;;;;;;;18.02;7.90;;;;;;;8.22;73.06;101865.50;5029039;28;20041;-78
2022/05/04 06:04:32;;;;;;;13.25;7.57;;;;;;;8.30;72.67;101863.34;5029318;28;20018;-80
2022/05/04 06:06:58;;;;;;;16.35;8.13;;;;;;;8.33;72.01;101871.06;5029465;28;20021;-83
2022/05/04 06:09:23;;;;;;;16.05;7.68;;;;;;;8.43;72.29;101875.84;5008039;28;20033;-83
2022/05/04 06:11:48;;;;;;;19.67;8.02;;;;;;;8.51;71.68;101875.47;5025106;28;20025;-86
2022/05/04 06:14:14;;;;;;;17.05;7.45;;;;;;;8.62;72.06;101875.78;5028254;28;20391;-83
2022/05/04 06:16:40;;;;;;;17.42;8.00;;;;;;;8.69;71.04;101887.66;5011679;28;20124;-84
2022/05/04 06:19:06;;;;;;;15.73;7.68;;;;;;;8.73;71.03;101881.34;4995734;28;20029;-84
2022/05/04 06:21:31;;;;;;;21.63;8.65;;;;;;;8.77;70.65;101880.25;5028640;28;20029;-84
2022/05/04 06:23:56;;;;;;;24.20;8.40;;;;;;;8.81;70.68;101885.38;5009395;28;20014;-84
2022/05/04 06:26:23;;;;;;;21.85;7.95;;;;;;;8.84;70.38;101893.09;5012992;28;20474;-84
2022/05/04 06:28:48;;;;;;;18.33;7.70;;;;;;;8.88;70.10;101892.03;5011870;28;20109;-85
2022/05/04 06:34:07;;;;;;;19.00;8.82;;;;;;;9.06;69.97;101884.06;5028454;28;20072;-85
2022/05/04 06:36:32;;;;;;;17.38;8.30;;;;;;;9.19;69.56;101884.25;5030301;28;20406;-85
2022/05/04 06:38:58;;;;;;;17.58;7.78;;;;;;;9.24;68.47;101891.94;5011437;28;20029;-85
2022/05/04 06:41:23;;;;;;;19.80;7.95;;;;;;;9.35;68.26;101881.72;5012776;28;20627;-84
2022/05/04 06:43:49;;;;;;;14.68;7.80;;;;;;;9.48;68.19;101879.28;5027978;28;20025;-84
2022/05/04 06:46:15;;;;;;;19.50;7.18;;;;;;;9.57;66.97;101886.66;5029119;28;20018;-85
2022/05/04 06:48:41;;;;;;;16.70;6.85;;;;;;;9.68;66.62;101892.22;5011636;28;20401;-84
2022/05/04 06:51:06;;;;;;;20.95;7.60;;;;;;;9.80;65.03;101894.19;5029357;28;20025;-85
2022/05/04 06:53:33;;;;;;;17.90;7.60;;;;;;;9.91;64.93;101889.19;5007970;28;20118;-85
2022/05/04 06:55:58;;;;;;;15.85;7.28;;;;;;;10.02;64.98;101884.22;5010028;28;20022;-86
2022/05/04 06:58:24;;;;;;;16.35;7.22;;;;;;;10.08;63.90;101887.44;5012782;28;20413;-84
2022/05/04 07:00:49;;;;;;;15.40;7.20;;;;;;;10.11;63.52;101887.25;5007459;28;20071;-85
2022/05/04 07:03:14;;;;;;;19.77;6.85;;;;;;;10.19;64.46;101880.63;5009404;28;20032;-84
2022/05/04 07:05:40;;;;;;;16.02;7.18;;;;;;;10.29;62.85;101886.25;5032368;28;20021;-84
2022/05/04 07:08:06;;;;;;;16.80;6.85;;;;;;;10.52;63.12;101883.19;5014925;28;20049;-85
2022/05/04 07:10:31;;;;;;;12.52;6.80;;;;;;;10.77;62.33;101887.03;5033577;28;20032;-84
2022/05/04 07:12:56;;;;;;;20.05;7.35;;;;;;;10.99;61.58;101877.78;5013639;28;20505;-84
2022/05/04 07:15:22;;;;;;;16.55;6.50;;;;;;;11.30;60.69;101879.44;5032729;28;20049;-84
2022/05/04 07:17:48;;;;;;;15.45;6.72;;;;;;;11.55;59.37;101880.56;5032994;28;20047;-85
2022/05/04 07:20:13;;;;;;;13.55;6.38;;;;;;;11.64;58.04;101880.03;5014590;28;20168;-85
2022/05/04 07:22:38;;;;;;;19.25;6.47;;;;;;;11.83;58.02;101871.84;5021729;28;20517;-85
2022/05/04 07:25:04;;;;;;;14.82;6.30;;;;;;;12.02;57.52;101864.47;5023383;28;20020;-84
2022/05/04 07:27:30;;;;;;;15.82;6.18;;;;;;;12.28;57.09;101875.13;5012422;28;20141;-85
2022/05/04 07:29:55;;;;;;;11.65;6.22;;;;;;;12.50;54.98;101876.28;5025321;28;20116;-86
2022/05/04 07:32:21;;;;;;;12.85;6.15;;;;;;;12.72;54.65;101872.22;5027321;28;20057;-85
2022/05/04 07:34:46;;;;;;;14.07;6.00;;;;;;;12.88;54.08;101872.06;5012810;28;20018;-86
2022/05/04 07:37:12;;;;;;;13.88;6.07;;;;;;;13.10;53.81;101865.19;5012977;28;20033;-85
2022/05/04 07:42:24;;;;;;;12.25;6.68;;;;;;;13.51;52.05;101872.09;5031813;28;20417;-85
2022/05/04 07:44:57;;;;;;;13.70;6.25;;;;;;;13.91;52.60;101869.28;5014936;28;20021;-84
2022/05/04 07:47:24;;;;;;;13.52;6.93;;;;;;;14.13;50.73;101871.25;5028945;28;20033;-85
2022/05/04 07:49:50;;;;;;;15.38;6.70;;;;;;;14.19;50.76;101865.50;4995401;28;20056;-84
2022/05/04 07:52:15;;;;;;;13.10;6.68;;;;;;;14.38;50.79;101871.97;5012917;28;20025;-84
2022/05/04 07:54:42;;;;;;;18.52;6.72;;;;;;;14.57;50.55;101871.50;4994732;28;20037;-85
2022/05/04 07:57:08;;;;;;;15.88;6.70;;;;;;;14.90;50.62;101869.94;5012571;28;20379;-84
2022/05/04 07:59:34;;;;;;;16.85;6.22;;;;;;;15.35;48.75;101876.16;4995345;28;20034;-85
2022/05/04 08:04:43;;;;;;;12.55;6.75;;;;;;;15.44;47.57;101867.47;5023336;28;20049;-85
2022/05/04 08:07:08;;;;;;;13.00;6.80;;;;;;;15.53;47.26;101872.06;5030179;28;20029;-85
2022/05/04 08:09:36;;;;;;;14.82;7.05;;;;;;;15.53;47.50;101877.38;5031449;28;20028;-84
2022/05/04 08:12:03;;;;;;;14.63;7.07;;;;;;;15.85;46.53;101876.66;5014469;28;20032;-85
2022/05/04 08:14:29;;;;;;;13.50;6.65;;;;;;;16.13;45.92;101875.31;5031957;28;20060;-85
2022/05/04 08:16:54;;;;;;;12.13;6.97;;;;;;;16.37;45.45;101872.44;5030915;28;20037;-84
2022/05/04 08:19:19;;;;;;;13.02;6.68;;;;;;;16.75;45.61;101866.66;5031425;28;20040;-84
2022/05/04 08:21:45;;;;;;;11.90;6.50;;;;;;;16.91;44.57;101867.06;4998339;28;20410;-85
2022/05/04 08:24:10;;;;;;;15.18;6.72;;;;;;;17.03;44.43;101870.50;5013019;28;20023;-85
2022/05/04 08:26:35;;;;;;;11.68;6.63;;;;;;;16.64;44.03;101864.88;5024467;28;20099;-85
2022/05/04 08:29:01;;;;;;;12.88;6.78;;;;;;;16.53;44.01;101870.25;5013713;28;20121;-85
2022/05/04 08:31:27;;;;;;;11.02;6.45;;;;;;;16.92;43.89;101866.94;5033946;28;20108;-83
2022/05/04 08:33:52;;;;;;;14.02;7.63;;;;;;;16.86;44.15;101867.47;4997635;28;20033;-84
2022/05/04 08:36:18;;;;;;;15.32;7.60;;;;;;;17.21;43.56;101871.56;4994014;28;20026;-85
2022/05/04 08:38:44;;;;;;;10.00;7.15;;;;;;;17.28;43.31;101869.25;5018837;28;20025;-85
2022/05/04 08:41:09;;;;;;;11.00;6.85;;;;;;;17.43;43.69;101866.09;5013069;28;20160;-86
2022/05/04 08:43:35;;;;;;;14.88;7.15;;;;;;;17.82;43.42;101863.63;5030800;28;20048;-85
2022/05/04 08:46:02;;;;;;;15.00;6.70;;;;;;;17.70;41.68;101864.72;5031464;28;20025;-85
2022/05/04 08:48:31;;;;;;;13.35;7.65;;;;;;;17.40;41.55;101863.72;5030947;28;20060;-85
2022/05/04 08:51:05;;;;;;;15.63;7.45;;;;;;;17.12;41.87;101867.91;5032594;28;20025;-85
2022/05/04 08:53:32;;;;;;;13.05;7.38;;;;;;;16.90;42.23;101860.91;5014114;28;20474;-86
2022/05/04 08:55:57;;;;;;;11.02;7.05;;;;;;;17.03;41.93;101860.69;5026094;28;20026;-86
2022/05/04 08:58:23;;;;;;;10.55;6.97;;;;;;;17.41;42.90;101857.41;4993235;28;20111;-87
2022/05/04 09:00:48;;;;;;;9.18;6.35;;;;;;;17.45;41.75;101861.50;5001332;28;20512;-86
2022/05/04 09:03:14;;;;;;;14.50;6.88;;;;;;;17.49;40.99;101860.25;5013995;28;20057;-87
2022/05/04 09:05:46;;;;;;;12.93;6.40;;;;;;;17.78;42.35;101860.41;5002998;28;20025;-85
2022/05/04 09:08:11;;;;;;;;;;;;;;;18.40;44.55;101861.91;5012266;28;20048;-87
2022/05/04 09:10:39;;;;;;;12.90;6.90;;;;;;;18.59;39.22;101858.41;5030186;28;19913;-87
2022/05/04 09:13:05;;;;;;;13.38;7.03;;;;;;;18.65;39.00;101860.53;5032515;28;20300;-86
2022/05/04 09:15:36;;;;;;;10.70;7.05;;;;;;;18.94;39.08;101851.69;5031895;28;20037;-85
2022/05/04 09:18:06;;;;;;;14.00;6.45;;;;;;;18.99;38.68;101850.25;5033971;28;20444;-84
2022/05/04 09:20:45;;;;;;;15.55;7.32;;;;;;;19.10;38.69;101849.25;5030816;28;20029;-86
2022/05/04 09:23:16;;;;;;;11.02;7.18;;;;;;;19.35;38.52;101847.78;5032255;28;20052;-87
2022/05/04 09:25:41;;;;;;;13.25;7.28;;;;;;;19.60;38.02;101841.78;5027765;28;20039;-86
2022/05/04 09:28:14;;;;;;;12.88;7.65;;;;;;;19.78;38.89;101833.00;5012416;28;20030;-86
2022/05/04 09:30:49;;;;;;;14.10;8.15;;;;;;;19.65;38.16;101846.72;5001902;28;20034;-86
2022/05/04 09:33:23;;;;;;;13.40;7.15;;;;;;;19.21;38.61;101838.44;5017369;28;20021;-86
2022/05/04 09:35:48;;;;;;;12.90;7.53;;;;;;;19.23;38.29;101835.59;4993429;28;20104;-86
2022/05/04 09:46:45;;;;;;;13.52;7.15;;;;;;;19.16;38.33;101835.31;5031899;28;20040;-87
2022/05/04 09:49:11;;;;;;;10.48;7.10;;;;;;;19.29;37.60;101833.19;5031972;28;20029;-83
2022/05/04 09:51:38;;;;;;;17.55;7.40;;;;;;;19.65;37.37;101828.84;5013664;28;20393;-87
2022/05/04 09:54:18;;;;;;;10.95;7.00;;;;;;;20.47;37.37;101830.59;5030589;28;20100;-84
2022/05/04 09:56:57;;;;;;;14.02;6.82;;;;;;;21.54;34.47;101822.25;5020842;28;20017;-87
2022/05/04 09:59:25;;;;;;;14.10;6.65;;;;;;;22.63;30.79;101814.13;5014200;28;20377;-87
2022/05/04 10:01:54;;;;;;;10.00;6.78;;;;;;;23.36;29.88;101816.69;5013881;28;20057;-88
2022/05/04 10:04:20;;;;;;;8.57;6.28;;;;;;;23.56;29.12;101817.97;4995067;28;20061;-87
2022/05/04 10:06:55;;;;;;;9.48;6.78;;;;;;;23.21;31.11;101813.03;5014268;28;20025;-87
2022/05/04 10:09:21;;;;;;;11.63;6.57;;;;;;;22.73;30.94;101812.09;5029435;28;20052;-87
2022/05/04 10:11:57;;;;;;;11.98;6.07;;;;;;;22.31;31.53;101807.72;5031143;28;20139;-87
2022/05/04 10:14:23;;;;;;;11.23;6.88;;;;;;;22.04;32.50;101813.41;5029403;28;20048;-87
2022/05/04 10:17:00;;;;;;;13.57;6.72;;;;;;;21.30;33.25;101812.28;5013469;28;20051;-87
2022/05/04 10:19:30;;;;;;;12.98;6.85;;;;;;;21.13;34.56;101811.31;5013341;28;20037;-85
2022/05/04 10:21:58;;;;;;;11.50;6.65;;;;;;;20.62;33.08;101810.31;5032434;28;20516;-87
2022/05/04 10:24:27;;;;;;;14.93;7.18;;;;;;;20.31;34.69;101809.00;5028869;28;20060;-87
2022/05/04 10:27:01;;;;;;;11.75;6.93;;;;;;;20.15;36.29;101806.19;5021025;28;20031;-86
2022/05/04 10:32:30;;;;;;;11.32;6.78;;;;;;;20.59;36.72;101813.28;5020133;28;20064;-86
2022/05/04 10:35:42;;;;;;;10.40;6.80;;;;;;;20.75;36.73;101817.91;5035341;28;20037;-87
2022/05/04 10:38:15;;;;;;;13.95;7.28;;;;;;;20.38;35.37;101810.06;4986231;28;20413;-88
2022/05/04 10:40:56;;;;;;;10.77;6.85;;;;;;;20.32;37.75;101808.84;5035157;28;20021;-88
2022/05/04 10:43:46;;;;;;;13.45;7.18;;;;;;;20.31;36.45;101806.31;5021664;28;20198;-88
2022/05/04 10:46:17;;;;;;;13.20;7.72;;;;;;;19.81;35.78;101814.84;5014103;28;20045;-87
2022/05/04 10:48:57;;;;;;;13.25;6.90;;;;;;;19.60;37.08;101806.22;4997857;28;20026;-88
2022/05/04 10:51:31;;;;;;;12.63;6.97;;;;;;;19.23;36.55;101812.44;4996322;28;20021;-88
2022/05/04 10:54:11;;;;;;;12.98;7.22;;;;;;;19.16;37.45;101805.97;5014658;28;20026;-87
2022/05/04 10:56:40;;;;;;;11.93;7.45;;;;;;;19.00;37.50;101805.75;5014273;28;20033;-87
2022/05/04 10:59:08;;;;;;;11.05;7.78;;;;;;;19.09;37.25;101802.22;4996676;28;20100;-88
2022/05/04 11:01:36;;;;;;;13.77;7.55;;;;;;;19.31;37.85;101807.19;5009101;28;20029;-87
2022/05/04 11:04:11;;;;;;;12.70;7.65;;;;;;;19.42;38.05;101785.66;5017307;28;20014;-86
2022/05/04 11:06:46;;;;;;;13.25;7.30;;;;;;;19.56;37.18;101791.50;5015607;28;20104;-88
2022/05/04 11:09:16;;;;;;;13.52;7.70;;;;;;;19.68;36.49;101796.50;5022158;28;20052;-87
2022/05/04 11:11:47;;;;;;;14.60;7.47;;;;;;;19.46;35.93;101782.69;5033297;28;20030;-87
2022/05/04 11:14:14;;;;;;;16.25;7.97;;;;;;;19.30;38.04;101794.84;5012350;28;20049;-87
2022/05/04 11:16:42;;;;;;;12.65;8.70;;;;;;;19.15;36.92;101790.13;5015268;28;20055;-88
2022/05/04 11:19:09;;;;;;;12.60;8.40;;;;;;;19.16;37.87;101797.13;5033048;28;20331;-88
2022/05/04 11:21:37;;;;;;;13.18;8.45;;;;;;;19.08;37.14;101784.53;5016118;28;20030;-88
2022/05/04 11:24:07;;;;;;;15.05;8.60;;;;;;;19.10;37.64;101783.38;5032688;28;20043;-88
2022/05/04 11:26:38;;;;;;;13.57;7.00;;;;;;;19.39;37.92;101780.59;5009118;28;20089;-88
2022/05/04 11:29:33;;;;;;;13.60;7.90;;;;;;;19.41;37.71;101783.97;5014138;28;20043;-88
2022/05/04 11:32:01;;;;;;;15.52;8.88;;;;;;;19.11;37.01;101781.56;5012955;28;20033;-88
2022/05/04 11:34:27;;;;;;;12.88;7.40;;;;;;;19.55;37.31;101779.97;5012802;28;20025;-88
2022/05/04 11:36:56;;;;;;;12.07;7.20;;;;;;;19.84;36.81;101779.81;5019969;28;20492;-88
2022/05/04 11:39:24;;;;;;;14.60;7.50;;;;;;;19.99;34.86;101775.63;5014190;28;20033;-88
2022/05/04 11:41:52;;;;;;;12.18;7.78;;;;;;;19.69;35.63;101774.16;5032364;28;20057;-88
2022/05/04 11:44:21;;;;;;;13.38;7.63;;;;;;;20.05;35.64;101768.00;5037335;28;20028;-88
2022/05/04 11:46:50;;;;;;;12.68;7.50;;;;;;;20.15;36.15;101771.44;5033180;28;20021;-89
2022/05/04 11:49:17;;;;;;;11.55;8.10;;;;;;;19.96;35.38;101769.75;5033184;28;20036;-87
2022/05/04 11:51:43;;;;;;;11.88;7.05;;;;;;;20.08;36.21;101759.69;5033011;28;20025;-87
2022/05/04 11:54:08;;;;;;;15.15;7.25;;;;;;;20.34;35.27;101757.91;5032384;28;20029;-87
2022/05/04 11:56:35;;;;;;;10.40;7.03;;;;;;;20.54;35.09;101759.44;5034662;28;20104;-88